Atlantic - Newfoundland: Past 24 Hour Conditions

 

Mary's Harbour

02:30 AM NDT 16 April 2014
This table is a summary of hourly weather conditions for the past 24 hours.
Date / Time
(NDT)
Wind(knots) Conditions Visibility(km) Pressure(kPa) Air tempC) Relative humidity(%) Dew pointC) Wind Chill
16 April 2014
2:30 SW 23 gust 39 Mostly Cloudy 16 100.5 10 80 6 *
1:30 WSW 25 gust 42 Cloudy 16 100.5 9 82 6 *
0:30 SW 33 gust 47 Cloudy 16 100.6 9 81 6 *
15 April 2014
23:30 WSW 25 gust 38 Cloudy 16 100.6 9 84 6 *
22:30 WSW 9 gust 17 Cloudy 16 100.7 8 84 5 *
21:30 SSW 12 Cloudy 16 100.8 6 88 4 *
20:30 S 10 gust 18 Cloudy 16 100.8 6 87 4 *
19:30 SE 7 Partly Cloudy 16 100.9 5 84 3 *
18:30 SW 11 gust 20 Mainly Sunny 16 100.8 5 82 3 *
17:30 SW 12 gust 17 Partly Cloudy 16 100.8 5 82 2 *
16:30 WSW 13 gust 22 Mainly Sunny 24 100.7 6 77 2 *
15:30 SW 17 gust 24 Mainly Sunny 24 100.6 6 77 2 *
14:30 SW 19 gust 29 Mainly Sunny 24 100.6 7 74 3 *
13:30 SW 17 gust 24 Mainly Sunny 24 100.5 9 74 5 *
12:30 SW 15 gust 24 Mainly Sunny 24 100.5 8 77 4 *
11:30 SW 11 gust 17 Mainly Sunny 24 100.5 6 80 3 *
10:30 SW 12 gust 18 Partly Cloudy 24 100.4 5 86 3 *
9:30 SW 14 gust 24 Mostly Cloudy 24 100.3 5 87 3 *
8:30 SSW 14 Partly Cloudy 24 100.3 5 90 3 *
7:30 S 8 Mainly Sunny 16 100.3 2 94 1 *
6:30 S 12 gust 18 Cloudy 16 100.5 1 94 0 *
5:30 SSE 11 Cloudy 16 100.5 0 94 -1 *
4:30 SSW 11 gust 21 Cloudy 16 100.6 0 94 -1 *
3:30 S 16 gust 25 Cloudy 16 100.8 0 93 -1 -7
2:30 S 15 gust 20 Light Freezing Rain 16 101.0 0 92 -1 -7
 
Map of Atlantic - Newfoundland marine weather areas Southwestern Grand Banks - 44138 Banquereau - 44139 Tail of the Bank - 44140 Nickerson Bank - 44251 Northeast Burgeo Bank - 44255 Blanc-Sablon Airport Cap Whittle Chevery Natashquan Airport Heath Point Miscou Island Grand Étang Ingonish Beach North Mountain St.Paul Island J.A. Douglas McCurdy Sydney Airport Charlottetown Airport East Point North Cape Argentia Bonavista Burgeo Cape Race Corner Brook Daniel's Harbour Englee Ferolle Point La Scie Port aux Basques Rocky Harbour Sagona Island St. Anthony Airport St. John's Int'l Airport St. Lawrence Stephenville Airport Twillingate Winterland Wreckhouse Cartwright Airport Mary's Harbour Grates Cove Pool's Island Marticot Island Long Pond Îles de la Madeleine Airport
Legend: buoyBuoy land stationLand Station